sensor_id;sensor_type;location;lat;lon;timestamp;P1;durP1;ratioP1;P2;durP2;ratioP2
18174;SDS011;9212;50.894;16.714;2023-09-18T00:00:11;6.97;;;4.07;;
18174;SDS011;9212;50.894;16.714;2023-09-18T00:02:39;5.25;;;4.35;;
18174;SDS011;9212;50.894;16.714;2023-09-18T00:05:06;4.45;;;4.00;;
18174;SDS011;9212;50.894;16.714;2023-09-18T00:07:33;7.25;;;4.40;;
18174;SDS011;9212;50.894;16.714;2023-09-18T00:10:02;5.05;;;4.10;;
18174;SDS011;9212;50.894;16.714;2023-09-18T00:12:29;5.25;;;4.20;;
18174;SDS011;9212;50.894;16.714;2023-09-18T00:14:57;7.72;;;4.10;;
18174;SDS011;9212;50.894;16.714;2023-09-18T00:17:24;6.95;;;4.78;;
18174;SDS011;9212;50.894;16.714;2023-09-18T00:19:52;4.75;;;4.25;;
18174;SDS011;9212;50.894;16.714;2023-09-18T00:22:19;5.10;;;4.32;;
18174;SDS011;9212;50.894;16.714;2023-09-18T00:24:47;5.13;;;3.92;;
18174;SDS011;9212;50.894;16.714;2023-09-18T00:27:15;5.75;;;4.28;;
18174;SDS011;9212;50.894;16.714;2023-09-18T00:29:42;4.80;;;4.05;;
18174;SDS011;9212;50.894;16.714;2023-09-18T00:32:10;7.15;;;4.43;;
18174;SDS011;9212;50.894;16.714;2023-09-18T00:34:37;5.90;;;4.30;;
18174;SDS011;9212;50.894;16.714;2023-09-18T00:37:04;5.03;;;4.20;;
18174;SDS011;9212;50.894;16.714;2023-09-18T00:39:31;7.32;;;4.95;;
18174;SDS011;9212;50.894;16.714;2023-09-18T00:41:59;5.28;;;4.78;;
18174;SDS011;9212;50.894;16.714;2023-09-18T00:44:28;5.18;;;4.68;;
18174;SDS011;9212;50.894;16.714;2023-09-18T00:46:55;6.82;;;5.22;;
18174;SDS011;9212;50.894;16.714;2023-09-18T00:49:22;10.48;;;5.18;;
18174;SDS011;9212;50.894;16.714;2023-09-18T00:51:51;6.28;;;5.68;;
18174;SDS011;9212;50.894;16.714;2023-09-18T00:54:18;9.38;;;5.50;;
18174;SDS011;9212;50.894;16.714;2023-09-18T00:56:46;9.30;;;5.32;;
18174;SDS011;9212;50.894;16.714;2023-09-18T00:59:14;7.75;;;5.35;;
18174;SDS011;9212;50.894;16.714;2023-09-18T01:01:42;5.80;;;5.00;;
18174;SDS011;9212;50.894;16.714;2023-09-18T01:04:10;5.75;;;5.15;;
18174;SDS011;9212;50.894;16.714;2023-09-18T01:06:38;11.45;;;5.30;;
18174;SDS011;9212;50.894;16.714;2023-09-18T01:09:05;7.10;;;5.25;;
18174;SDS011;9212;50.894;16.714;2023-09-18T01:11:41;10.82;;;5.68;;
18174;SDS011;9212;50.894;16.714;2023-09-18T01:14:19;6.47;;;5.43;;
18174;SDS011;9212;50.894;16.714;2023-09-18T01:16:53;6.80;;;5.32;;
18174;SDS011;9212;50.894;16.714;2023-09-18T01:22:12;7.38;;;5.38;;
18174;SDS011;9212;50.894;16.714;2023-09-18T01:24:41;6.90;;;5.70;;
18174;SDS011;9212;50.894;16.714;2023-09-18T01:27:09;7.18;;;5.53;;
18174;SDS011;9212;50.894;16.714;2023-09-18T01:29:37;8.93;;;5.65;;
18174;SDS011;9212;50.894;16.714;2023-09-18T01:32:05;10.25;;;5.50;;
18174;SDS011;9212;50.894;16.714;2023-09-18T01:34:33;8.63;;;5.60;;
18174;SDS011;9212;50.894;16.714;2023-09-18T01:37:02;8.38;;;6.13;;
18174;SDS011;9212;50.894;16.714;2023-09-18T01:39:31;11.60;;;5.50;;
18174;SDS011;9212;50.894;16.714;2023-09-18T01:42:02;7.80;;;5.35;;
18174;SDS011;9212;50.894;16.714;2023-09-18T01:44:30;8.45;;;5.43;;
18174;SDS011;9212;50.894;16.714;2023-09-18T01:46:58;7.88;;;5.88;;
18174;SDS011;9212;50.894;16.714;2023-09-18T01:49:28;8.00;;;5.95;;
18174;SDS011;9212;50.894;16.714;2023-09-18T01:51:55;10.68;;;6.10;;
18174;SDS011;9212;50.894;16.714;2023-09-18T01:54:23;10.18;;;6.03;;
18174;SDS011;9212;50.894;16.714;2023-09-18T01:56:50;11.50;;;6.00;;
18174;SDS011;9212;50.894;16.714;2023-09-18T01:59:20;9.85;;;6.20;;
18174;SDS011;9212;50.894;16.714;2023-09-18T02:01:48;8.50;;;6.10;;
18174;SDS011;9212;50.894;16.714;2023-09-18T02:04:15;8.80;;;5.78;;
18174;SDS011;9212;50.894;16.714;2023-09-18T02:06:43;10.00;;;5.78;;
18174;SDS011;9212;50.894;16.714;2023-09-18T02:09:10;8.18;;;5.85;;
18174;SDS011;9212;50.894;16.714;2023-09-18T02:11:38;7.45;;;5.65;;
18174;SDS011;9212;50.894;16.714;2023-09-18T02:14:06;9.05;;;6.45;;
18174;SDS011;9212;50.894;16.714;2023-09-18T02:16:36;9.07;;;5.95;;
18174;SDS011;9212;50.894;16.714;2023-09-18T02:19:06;10.82;;;6.18;;
18174;SDS011;9212;50.894;16.714;2023-09-18T02:21:34;7.97;;;6.13;;
18174;SDS011;9212;50.894;16.714;2023-09-18T02:24:01;8.52;;;6.07;;
18174;SDS011;9212;50.894;16.714;2023-09-18T02:26:29;9.88;;;5.60;;
18174;SDS011;9212;50.894;16.714;2023-09-18T02:28:57;10.40;;;6.30;;
18174;SDS011;9212;50.894;16.714;2023-09-18T02:31:25;9.65;;;6.45;;
18174;SDS011;9212;50.894;16.714;2023-09-18T02:33:53;10.00;;;6.38;;
18174;SDS011;9212;50.894;16.714;2023-09-18T02:36:21;9.65;;;6.72;;
18174;SDS011;9212;50.894;16.714;2023-09-18T02:38:48;10.27;;;6.43;;
18174;SDS011;9212;50.894;16.714;2023-09-18T02:41:15;9.37;;;5.93;;
18174;SDS011;9212;50.894;16.714;2023-09-18T02:43:42;9.13;;;6.68;;
18174;SDS011;9212;50.894;16.714;2023-09-18T02:46:09;8.73;;;6.33;;
18174;SDS011;9212;50.894;16.714;2023-09-18T02:48:37;8.83;;;6.40;;
18174;SDS011;9212;50.894;16.714;2023-09-18T02:51:05;11.90;;;6.90;;
18174;SDS011;9212;50.894;16.714;2023-09-18T02:53:33;11.80;;;6.73;;
18174;SDS011;9212;50.894;16.714;2023-09-18T02:56:00;9.80;;;6.57;;
18174;SDS011;9212;50.894;16.714;2023-09-18T02:58:28;8.65;;;6.13;;
18174;SDS011;9212;50.894;16.714;2023-09-18T03:00:55;10.38;;;6.07;;
18174;SDS011;9212;50.894;16.714;2023-09-18T03:03:24;7.82;;;6.47;;
18174;SDS011;9212;50.894;16.714;2023-09-18T03:05:51;10.00;;;6.37;;
18174;SDS011;9212;50.894;16.714;2023-09-18T03:08:20;8.63;;;6.37;;
18174;SDS011;9212;50.894;16.714;2023-09-18T03:10:47;9.77;;;6.13;;
18174;SDS011;9212;50.894;16.714;2023-09-18T03:13:14;10.77;;;6.13;;
18174;SDS011;9212;50.894;16.714;2023-09-18T03:15:44;11.40;;;7.03;;
18174;SDS011;9212;50.894;16.714;2023-09-18T03:18:13;9.00;;;6.93;;
18174;SDS011;9212;50.894;16.714;2023-09-18T03:20:40;11.67;;;6.80;;
18174;SDS011;9212;50.894;16.714;2023-09-18T03:23:07;8.67;;;6.50;;
18174;SDS011;9212;50.894;16.714;2023-09-18T03:25:36;10.63;;;7.07;;
18174;SDS011;9212;50.894;16.714;2023-09-18T03:28:03;8.23;;;6.37;;
18174;SDS011;9212;50.894;16.714;2023-09-18T03:30:31;9.37;;;6.33;;
18174;SDS011;9212;50.894;16.714;2023-09-18T03:32:58;11.27;;;7.53;;
18174;SDS011;9212;50.894;16.714;2023-09-18T03:35:28;10.27;;;7.40;;
18174;SDS011;9212;50.894;16.714;2023-09-18T03:37:57;9.70;;;6.87;;
18174;SDS011;9212;50.894;16.714;2023-09-18T03:40:24;9.60;;;6.70;;
18174;SDS011;9212;50.894;16.714;2023-09-18T03:42:53;8.53;;;6.43;;
18174;SDS011;9212;50.894;16.714;2023-09-18T03:45:20;9.67;;;7.47;;
18174;SDS011;9212;50.894;16.714;2023-09-18T03:47:47;10.67;;;6.97;;
18174;SDS011;9212;50.894;16.714;2023-09-18T03:50:15;10.37;;;7.87;;
18174;SDS011;9212;50.894;16.714;2023-09-18T03:52:42;11.07;;;6.97;;
18174;SDS011;9212;50.894;16.714;2023-09-18T03:55:09;9.53;;;7.47;;
18174;SDS011;9212;50.894;16.714;2023-09-18T03:57:36;11.47;;;7.33;;
18174;SDS011;9212;50.894;16.714;2023-09-18T04:00:06;10.53;;;7.33;;
18174;SDS011;9212;50.894;16.714;2023-09-18T04:02:34;14.70;;;7.73;;
18174;SDS011;9212;50.894;16.714;2023-09-18T04:05:01;13.67;;;7.73;;
18174;SDS011;9212;50.894;16.714;2023-09-18T04:07:29;13.33;;;7.70;;
18174;SDS011;9212;50.894;16.714;2023-09-18T04:09:57;11.53;;;8.27;;
18174;SDS011;9212;50.894;16.714;2023-09-18T04:12:24;11.03;;;7.80;;
18174;SDS011;9212;50.894;16.714;2023-09-18T04:14:51;10.97;;;7.63;;
18174;SDS011;9212;50.894;16.714;2023-09-18T04:17:20;11.17;;;7.33;;
18174;SDS011;9212;50.894;16.714;2023-09-18T04:19:47;14.47;;;7.87;;
18174;SDS011;9212;50.894;16.714;2023-09-18T04:22:14;14.27;;;8.93;;
18174;SDS011;9212;50.894;16.714;2023-09-18T04:24:41;13.40;;;8.23;;
18174;SDS011;9212;50.894;16.714;2023-09-18T04:27:09;11.23;;;8.27;;
18174;SDS011;9212;50.894;16.714;2023-09-18T04:29:36;11.77;;;8.10;;
18174;SDS011;9212;50.894;16.714;2023-09-18T04:32:03;13.20;;;8.77;;
18174;SDS011;9212;50.894;16.714;2023-09-18T04:34:32;12.70;;;8.43;;
18174;SDS011;9212;50.894;16.714;2023-09-18T04:37:00;14.43;;;8.90;;
18174;SDS011;9212;50.894;16.714;2023-09-18T04:39:28;11.90;;;8.17;;
18174;SDS011;9212;50.894;16.714;2023-09-18T04:41:59;12.00;;;8.77;;
18174;SDS011;9212;50.894;16.714;2023-09-18T04:44:26;14.50;;;9.63;;
18174;SDS011;9212;50.894;16.714;2023-09-18T04:46:53;14.40;;;10.20;;
18174;SDS011;9212;50.894;16.714;2023-09-18T04:49:22;20.90;;;10.83;;
18174;SDS011;9212;50.894;16.714;2023-09-18T04:51:51;16.73;;;9.73;;
18174;SDS011;9212;50.894;16.714;2023-09-18T04:54:18;15.63;;;9.57;;
18174;SDS011;9212;50.894;16.714;2023-09-18T04:56:45;14.93;;;10.20;;
18174;SDS011;9212;50.894;16.714;2023-09-18T04:59:12;17.43;;;10.53;;
18174;SDS011;9212;50.894;16.714;2023-09-18T05:01:39;20.00;;;11.77;;
18174;SDS011;9212;50.894;16.714;2023-09-18T05:04:07;19.27;;;12.27;;
18174;SDS011;9212;50.894;16.714;2023-09-18T05:06:34;19.63;;;13.23;;
18174;SDS011;9212;50.894;16.714;2023-09-18T05:09:05;22.60;;;13.47;;
18174;SDS011;9212;50.894;16.714;2023-09-18T05:11:32;26.10;;;14.27;;
18174;SDS011;9212;50.894;16.714;2023-09-18T05:14:01;24.67;;;15.27;;
18174;SDS011;9212;50.894;16.714;2023-09-18T05:16:28;23.33;;;14.48;;
18174;SDS011;9212;50.894;16.714;2023-09-18T05:18:55;23.50;;;14.65;;
18174;SDS011;9212;50.894;16.714;2023-09-18T05:21:22;21.95;;;13.88;;
18174;SDS011;9212;50.894;16.714;2023-09-18T05:23:52;20.85;;;13.23;;
18174;SDS011;9212;50.894;16.714;2023-09-18T05:26:21;19.70;;;11.98;;
18174;SDS011;9212;50.894;16.714;2023-09-18T05:28:49;17.83;;;12.55;;
18174;SDS011;9212;50.894;16.714;2023-09-18T05:31:20;16.58;;;10.30;;
18174;SDS011;9212;50.894;16.714;2023-09-18T05:33:47;15.15;;;10.30;;
18174;SDS011;9212;50.894;16.714;2023-09-18T05:36:14;13.68;;;8.90;;
18174;SDS011;9212;50.894;16.714;2023-09-18T05:38:42;12.73;;;8.95;;
18174;SDS011;9212;50.894;16.714;2023-09-18T05:41:09;10.88;;;8.20;;
18174;SDS011;9212;50.894;16.714;2023-09-18T05:43:37;11.13;;;9.07;;
18174;SDS011;9212;50.894;16.714;2023-09-18T05:46:05;13.40;;;8.60;;
18174;SDS011;9212;50.894;16.714;2023-09-18T05:48:32;15.23;;;8.80;;
18174;SDS011;9212;50.894;16.714;2023-09-18T05:50:59;12.30;;;8.70;;
18174;SDS011;9212;50.894;16.714;2023-09-18T05:53:26;11.88;;;7.93;;
18174;SDS011;9212;50.894;16.714;2023-09-18T05:55:54;11.05;;;8.35;;
18174;SDS011;9212;50.894;16.714;2023-09-18T05:58:28;11.20;;;8.40;;
18174;SDS011;9212;50.894;16.714;2023-09-18T06:00:58;11.43;;;7.72;;
18174;SDS011;9212;50.894;16.714;2023-09-18T06:03:26;8.65;;;7.50;;
18174;SDS011;9212;50.894;16.714;2023-09-18T06:05:55;12.93;;;8.75;;
18174;SDS011;9212;50.894;16.714;2023-09-18T06:08:22;11.23;;;7.47;;
18174;SDS011;9212;50.894;16.714;2023-09-18T06:10:51;8.23;;;7.00;;
18174;SDS011;9212;50.894;16.714;2023-09-18T06:13:19;10.40;;;7.20;;
18174;SDS011;9212;50.894;16.714;2023-09-18T06:15:46;8.57;;;7.03;;
18174;SDS011;9212;50.894;16.714;2023-09-18T06:18:14;9.40;;;7.60;;
18174;SDS011;9212;50.894;16.714;2023-09-18T06:20:41;9.73;;;7.60;;
18174;SDS011;9212;50.894;16.714;2023-09-18T06:23:10;8.55;;;7.05;;
18174;SDS011;9212;50.894;16.714;2023-09-18T06:25:38;11.27;;;7.18;;
18174;SDS011;9212;50.894;16.714;2023-09-18T06:28:05;9.60;;;7.68;;
18174;SDS011;9212;50.894;16.714;2023-09-18T06:30:32;9.45;;;6.90;;
18174;SDS011;9212;50.894;16.714;2023-09-18T06:33:01;12.45;;;7.30;;
18174;SDS011;9212;50.894;16.714;2023-09-18T06:35:30;10.30;;;5.45;;
18174;SDS011;9212;50.894;16.714;2023-09-18T06:37:57;12.57;;;7.68;;
18174;SDS011;9212;50.894;16.714;2023-09-18T06:40:24;8.25;;;6.88;;
18174;SDS011;9212;50.894;16.714;2023-09-18T06:42:57;8.00;;;6.85;;
18174;SDS011;9212;50.894;16.714;2023-09-18T06:45:25;13.48;;;7.53;;
18174;SDS011;9212;50.894;16.714;2023-09-18T06:47:52;7.93;;;6.95;;
18174;SDS011;9212;50.894;16.714;2023-09-18T06:50:22;10.70;;;7.72;;
18174;SDS011;9212;50.894;16.714;2023-09-18T06:52:51;9.93;;;7.50;;
18174;SDS011;9212;50.894;16.714;2023-09-18T06:55:18;13.45;;;8.20;;
18174;SDS011;9212;50.894;16.714;2023-09-18T06:57:45;9.85;;;7.85;;
18174;SDS011;9212;50.894;16.714;2023-09-18T07:00:14;8.93;;;7.82;;
18174;SDS011;9212;50.894;16.714;2023-09-18T07:02:43;13.65;;;7.32;;
18174;SDS011;9212;50.894;16.714;2023-09-18T07:05:10;8.85;;;7.57;;
18174;SDS011;9212;50.894;16.714;2023-09-18T07:07:38;12.45;;;7.88;;
18174;SDS011;9212;50.894;16.714;2023-09-18T07:10:07;8.77;;;7.05;;
18174;SDS011;9212;50.894;16.714;2023-09-18T07:12:34;13.43;;;8.02;;
18174;SDS011;9212;50.894;16.714;2023-09-18T07:15:01;9.45;;;7.68;;
18174;SDS011;9212;50.894;16.714;2023-09-18T07:17:29;9.55;;;7.65;;
18174;SDS011;9212;50.894;16.714;2023-09-18T07:19:57;10.18;;;7.55;;
18174;SDS011;9212;50.894;16.714;2023-09-18T07:22:24;11.48;;;7.47;;
18174;SDS011;9212;50.894;16.714;2023-09-18T07:24:51;9.70;;;8.07;;
18174;SDS011;9212;50.894;16.714;2023-09-18T07:27:20;10.10;;;7.70;;
18174;SDS011;9212;50.894;16.714;2023-09-18T07:29:47;9.43;;;8.02;;
18174;SDS011;9212;50.894;16.714;2023-09-18T07:32:14;9.40;;;7.18;;
18174;SDS011;9212;50.894;16.714;2023-09-18T07:34:41;9.32;;;8.05;;
18174;SDS011;9212;50.894;16.714;2023-09-18T07:37:12;10.20;;;7.50;;
18174;SDS011;9212;50.894;16.714;2023-09-18T07:39:40;10.40;;;8.38;;
18174;SDS011;9212;50.894;16.714;2023-09-18T07:42:08;9.57;;;7.85;;
18174;SDS011;9212;50.894;16.714;2023-09-18T07:44:37;18.73;;;7.15;;
18174;SDS011;9212;50.894;16.714;2023-09-18T07:47:04;10.48;;;7.35;;
18174;SDS011;9212;50.894;16.714;2023-09-18T07:49:31;9.13;;;7.85;;
18174;SDS011;9212;50.894;16.714;2023-09-18T07:51:58;12.13;;;8.32;;
18174;SDS011;9212;50.894;16.714;2023-09-18T07:54:26;11.63;;;8.45;;
18174;SDS011;9212;50.894;16.714;2023-09-18T07:56:53;11.80;;;7.88;;
18174;SDS011;9212;50.894;16.714;2023-09-18T07:59:20;9.43;;;7.53;;
18174;SDS011;9212;50.894;16.714;2023-09-18T08:01:51;11.02;;;7.72;;
18174;SDS011;9212;50.894;16.714;2023-09-18T08:04:19;10.00;;;7.70;;
18174;SDS011;9212;50.894;16.714;2023-09-18T08:06:46;10.85;;;7.88;;
18174;SDS011;9212;50.894;16.714;2023-09-18T08:09:14;11.00;;;8.02;;
18174;SDS011;9212;50.894;16.714;2023-09-18T08:11:41;9.57;;;6.97;;
18174;SDS011;9212;50.894;16.714;2023-09-18T08:14:09;8.68;;;7.20;;
18174;SDS011;9212;50.894;16.714;2023-09-18T08:16:37;9.63;;;7.50;;
18174;SDS011;9212;50.894;16.714;2023-09-18T08:19:06;10.38;;;7.47;;
18174;SDS011;9212;50.894;16.714;2023-09-18T08:21:33;11.48;;;8.05;;
18174;SDS011;9212;50.894;16.714;2023-09-18T08:24:00;13.95;;;7.70;;
18174;SDS011;9212;50.894;16.714;2023-09-18T08:26:27;11.13;;;7.63;;
18174;SDS011;9212;50.894;16.714;2023-09-18T08:28:54;8.30;;;7.00;;
18174;SDS011;9212;50.894;16.714;2023-09-18T08:31:22;14.02;;;7.68;;
18174;SDS011;9212;50.894;16.714;2023-09-18T08:33:49;11.88;;;7.32;;
18174;SDS011;9212;50.894;16.714;2023-09-18T08:36:18;10.40;;;8.05;;
18174;SDS011;9212;50.894;16.714;2023-09-18T08:38:45;10.05;;;7.65;;
18174;SDS011;9212;50.894;16.714;2023-09-18T08:41:12;8.73;;;7.22;;
18174;SDS011;9212;50.894;16.714;2023-09-18T08:43:40;14.10;;;8.55;;
18174;SDS011;9212;50.894;16.714;2023-09-18T08:46:09;9.98;;;7.35;;
18174;SDS011;9212;50.894;16.714;2023-09-18T08:48:36;14.02;;;8.35;;
18174;SDS011;9212;50.894;16.714;2023-09-18T08:51:05;10.60;;;7.35;;
18174;SDS011;9212;50.894;16.714;2023-09-18T08:53:34;13.23;;;8.00;;
18174;SDS011;9212;50.894;16.714;2023-09-18T08:56:02;10.68;;;7.80;;
18174;SDS011;9212;50.894;16.714;2023-09-18T08:58:32;10.90;;;8.32;;
18174;SDS011;9212;50.894;16.714;2023-09-18T09:01:05;9.40;;;7.53;;
18174;SDS011;9212;50.894;16.714;2023-09-18T09:03:36;11.43;;;7.78;;
18174;SDS011;9212;50.894;16.714;2023-09-18T09:06:04;12.52;;;8.05;;
18174;SDS011;9212;50.894;16.714;2023-09-18T09:08:32;17.02;;;8.57;;
18174;SDS011;9212;50.894;16.714;2023-09-18T09:11:00;9.77;;;7.63;;
18174;SDS011;9212;50.894;16.714;2023-09-18T09:13:27;12.25;;;8.30;;
18174;SDS011;9212;50.894;16.714;2023-09-18T09:15:55;10.20;;;7.65;;
18174;SDS011;9212;50.894;16.714;2023-09-18T09:18:24;8.40;;;7.38;;
18174;SDS011;9212;50.894;16.714;2023-09-18T09:20:52;9.90;;;7.53;;
18174;SDS011;9212;50.894;16.714;2023-09-18T09:23:23;8.93;;;7.22;;
18174;SDS011;9212;50.894;16.714;2023-09-18T09:25:51;10.05;;;8.05;;
18174;SDS011;9212;50.894;16.714;2023-09-18T09:28:29;12.45;;;7.78;;
18174;SDS011;9212;50.894;16.714;2023-09-18T09:30:59;12.77;;;8.25;;
18174;SDS011;9212;50.894;16.714;2023-09-18T09:33:28;8.77;;;7.32;;
18174;SDS011;9212;50.894;16.714;2023-09-18T09:35:56;11.63;;;7.47;;
18174;SDS011;9212;50.894;16.714;2023-09-18T09:38:28;12.32;;;7.45;;
18174;SDS011;9212;50.894;16.714;2023-09-18T09:40:56;19.05;;;7.70;;
18174;SDS011;9212;50.894;16.714;2023-09-18T09:43:25;8.25;;;6.88;;
18174;SDS011;9212;50.894;16.714;2023-09-18T09:45:57;8.93;;;7.55;;
18174;SDS011;9212;50.894;16.714;2023-09-18T09:48:25;9.70;;;7.13;;
18174;SDS011;9212;50.894;16.714;2023-09-18T09:50:52;11.55;;;7.47;;
18174;SDS011;9212;50.894;16.714;2023-09-18T09:53:23;10.50;;;6.95;;
18174;SDS011;9212;50.894;16.714;2023-09-18T09:56:09;8.32;;;6.82;;
18174;SDS011;9212;50.894;16.714;2023-09-18T09:58:36;8.32;;;7.20;;
18174;SDS011;9212;50.894;16.714;2023-09-18T10:01:08;10.65;;;7.40;;
18174;SDS011;9212;50.894;16.714;2023-09-18T10:03:42;7.55;;;6.57;;
18174;SDS011;9212;50.894;16.714;2023-09-18T10:06:10;11.20;;;5.38;;
18174;SDS011;9212;50.894;16.714;2023-09-18T10:08:38;12.68;;;5.47;;
18174;SDS011;9212;50.894;16.714;2023-09-18T10:11:06;5.60;;;5.10;;
18174;SDS011;9212;50.894;16.714;2023-09-18T10:13:39;7.97;;;5.30;;
18174;SDS011;9212;50.894;16.714;2023-09-18T10:16:13;5.72;;;4.93;;
18174;SDS011;9212;50.894;16.714;2023-09-18T10:18:56;9.88;;;5.00;;
18174;SDS011;9212;50.894;16.714;2023-09-18T10:21:38;8.90;;;4.88;;
18174;SDS011;9212;50.894;16.714;2023-09-18T10:24:14;5.95;;;4.38;;
18174;SDS011;9212;50.894;16.714;2023-09-18T10:26:47;5.93;;;4.55;;
18174;SDS011;9212;50.894;16.714;2023-09-18T10:29:17;6.32;;;4.40;;
18174;SDS011;9212;50.894;16.714;2023-09-18T10:31:48;6.90;;;3.85;;
18174;SDS011;9212;50.894;16.714;2023-09-18T10:34:15;4.63;;;4.22;;
18174;SDS011;9212;50.894;16.714;2023-09-18T10:36:42;9.57;;;4.50;;
18174;SDS011;9212;50.894;16.714;2023-09-18T10:39:10;9.43;;;4.30;;
18174;SDS011;9212;50.894;16.714;2023-09-18T10:41:38;8.57;;;4.38;;
18174;SDS011;9212;50.894;16.714;2023-09-18T10:44:06;9.10;;;4.28;;
18174;SDS011;9212;50.894;16.714;2023-09-18T10:46:34;7.93;;;5.03;;
18174;SDS011;9212;50.894;16.714;2023-09-18T10:49:03;5.80;;;4.43;;
18174;SDS011;9212;50.894;16.714;2023-09-18T10:51:31;6.13;;;4.90;;
18174;SDS011;9212;50.894;16.714;2023-09-18T10:53:59;5.28;;;4.20;;
18174;SDS011;9212;50.894;16.714;2023-09-18T10:56:28;6.93;;;4.03;;
18174;SDS011;9212;50.894;16.714;2023-09-18T10:58:56;4.38;;;3.97;;
18174;SDS011;9212;50.894;16.714;2023-09-18T11:01:24;5.63;;;4.88;;
18174;SDS011;9212;50.894;16.714;2023-09-18T11:03:52;7.28;;;5.10;;
18174;SDS011;9212;50.894;16.714;2023-09-18T11:06:21;4.45;;;4.05;;
18174;SDS011;9212;50.894;16.714;2023-09-18T11:08:51;5.50;;;4.80;;
18174;SDS011;9212;50.894;16.714;2023-09-18T11:11:19;8.77;;;4.78;;
18174;SDS011;9212;50.894;16.714;2023-09-18T11:13:46;8.02;;;4.75;;
18174;SDS011;9212;50.894;16.714;2023-09-18T11:16:16;7.80;;;5.22;;
18174;SDS011;9212;50.894;16.714;2023-09-18T11:18:50;8.10;;;4.38;;
18174;SDS011;9212;50.894;16.714;2023-09-18T11:21:24;9.40;;;4.80;;
18174;SDS011;9212;50.894;16.714;2023-09-18T11:23:58;4.97;;;4.47;;
18174;SDS011;9212;50.894;16.714;2023-09-18T11:26:30;8.05;;;4.90;;
18174;SDS011;9212;50.894;16.714;2023-09-18T11:29:00;10.60;;;5.35;;
18174;SDS011;9212;50.894;16.714;2023-09-18T11:31:43;6.07;;;4.93;;
18174;SDS011;9212;50.894;16.714;2023-09-18T11:34:11;7.75;;;5.15;;
18174;SDS011;9212;50.894;16.714;2023-09-18T11:36:40;7.47;;;4.88;;
18174;SDS011;9212;50.894;16.714;2023-09-18T11:39:07;7.25;;;4.68;;
18174;SDS011;9212;50.894;16.714;2023-09-18T11:41:36;7.10;;;5.45;;
18174;SDS011;9212;50.894;16.714;2023-09-18T11:44:31;8.75;;;5.22;;
18174;SDS011;9212;50.894;16.714;2023-09-18T11:47:00;9.05;;;4.72;;
18174;SDS011;9212;50.894;16.714;2023-09-18T11:49:29;7.40;;;5.57;;
18174;SDS011;9212;50.894;16.714;2023-09-18T11:51:59;9.02;;;5.00;;
18174;SDS011;9212;50.894;16.714;2023-09-18T11:54:28;5.57;;;4.55;;
18174;SDS011;9212;50.894;16.714;2023-09-18T11:56:56;8.88;;;5.30;;
18174;SDS011;9212;50.894;16.714;2023-09-18T11:59:33;5.57;;;4.97;;
18174;SDS011;9212;50.894;16.714;2023-09-18T12:02:02;7.82;;;4.97;;
18174;SDS011;9212;50.894;16.714;2023-09-18T12:04:31;9.13;;;5.30;;
18174;SDS011;9212;50.894;16.714;2023-09-18T12:07:00;6.80;;;5.50;;
18174;SDS011;9212;50.894;16.714;2023-09-18T12:09:28;7.50;;;4.90;;
18174;SDS011;9212;50.894;16.714;2023-09-18T12:11:55;9.27;;;5.47;;
18174;SDS011;9212;50.894;16.714;2023-09-18T12:14:23;6.55;;;5.40;;
18174;SDS011;9212;50.894;16.714;2023-09-18T12:16:50;7.10;;;5.03;;
18174;SDS011;9212;50.894;16.714;2023-09-18T12:19:18;8.65;;;5.47;;
18174;SDS011;9212;50.894;16.714;2023-09-18T12:21:46;6.63;;;4.68;;
18174;SDS011;9212;50.894;16.714;2023-09-18T12:24:15;9.10;;;5.50;;
18174;SDS011;9212;50.894;16.714;2023-09-18T12:26:48;8.05;;;5.28;;
18174;SDS011;9212;50.894;16.714;2023-09-18T12:29:15;7.35;;;5.13;;
18174;SDS011;9212;50.894;16.714;2023-09-18T12:31:42;7.63;;;4.88;;
18174;SDS011;9212;50.894;16.714;2023-09-18T12:34:21;8.75;;;5.65;;
18174;SDS011;9212;50.894;16.714;2023-09-18T12:36:48;15.23;;;5.75;;
18174;SDS011;9212;50.894;16.714;2023-09-18T12:39:17;17.90;;;5.05;;
18174;SDS011;9212;50.894;16.714;2023-09-18T12:41:45;7.50;;;5.55;;
18174;SDS011;9212;50.894;16.714;2023-09-18T12:44:13;9.30;;;5.57;;
18174;SDS011;9212;50.894;16.714;2023-09-18T12:46:41;6.57;;;4.75;;
18174;SDS011;9212;50.894;16.714;2023-09-18T12:49:16;10.18;;;5.53;;
18174;SDS011;9212;50.894;16.714;2023-09-18T12:51:43;10.35;;;5.32;;
18174;SDS011;9212;50.894;16.714;2023-09-18T12:54:11;7.55;;;5.30;;
18174;SDS011;9212;50.894;16.714;2023-09-18T12:56:43;11.63;;;5.95;;
18174;SDS011;9212;50.894;16.714;2023-09-18T12:59:10;9.23;;;4.85;;
18174;SDS011;9212;50.894;16.714;2023-09-18T13:01:38;6.10;;;5.38;;
18174;SDS011;9212;50.894;16.714;2023-09-18T13:04:06;7.38;;;4.47;;
18174;SDS011;9212;50.894;16.714;2023-09-18T13:06:38;5.95;;;4.88;;
18174;SDS011;9212;50.894;16.714;2023-09-18T13:09:14;10.32;;;5.57;;
18174;SDS011;9212;50.894;16.714;2023-09-18T13:11:53;10.88;;;5.50;;
18174;SDS011;9212;50.894;16.714;2023-09-18T13:14:20;5.78;;;5.18;;
18174;SDS011;9212;50.894;16.714;2023-09-18T13:16:47;13.18;;;5.47;;
18174;SDS011;9212;50.894;16.714;2023-09-18T13:19:14;5.43;;;4.63;;
18174;SDS011;9212;50.894;16.714;2023-09-18T13:21:46;10.35;;;5.32;;
18174;SDS011;9212;50.894;16.714;2023-09-18T13:24:23;5.63;;;5.05;;
18174;SDS011;9212;50.894;16.714;2023-09-18T13:26:53;8.70;;;5.72;;
18174;SDS011;9212;50.894;16.714;2023-09-18T13:29:21;8.07;;;5.28;;
18174;SDS011;9212;50.894;16.714;2023-09-18T13:31:48;7.20;;;5.00;;
18174;SDS011;9212;50.894;16.714;2023-09-18T13:34:16;7.55;;;4.88;;
18174;SDS011;9212;50.894;16.714;2023-09-18T13:36:43;10.75;;;5.18;;
18174;SDS011;9212;50.894;16.714;2023-09-18T13:39:12;10.50;;;5.80;;
18174;SDS011;9212;50.894;16.714;2023-09-18T13:41:42;7.43;;;5.30;;
18174;SDS011;9212;50.894;16.714;2023-09-18T13:44:10;6.40;;;5.45;;
18174;SDS011;9212;50.894;16.714;2023-09-18T13:46:38;8.45;;;5.10;;
18174;SDS011;9212;50.894;16.714;2023-09-18T13:49:06;6.75;;;5.00;;
18174;SDS011;9212;50.894;16.714;2023-09-18T13:51:33;6.50;;;5.43;;
18174;SDS011;9212;50.894;16.714;2023-09-18T13:54:00;8.40;;;5.28;;
18174;SDS011;9212;50.894;16.714;2023-09-18T13:56:29;8.85;;;5.80;;
18174;SDS011;9212;50.894;16.714;2023-09-18T13:58:56;5.95;;;4.72;;
18174;SDS011;9212;50.894;16.714;2023-09-18T14:01:25;8.52;;;4.95;;
18174;SDS011;9212;50.894;16.714;2023-09-18T14:03:53;6.20;;;5.15;;
18174;SDS011;9212;50.894;16.714;2023-09-18T14:06:20;6.97;;;5.22;;
18174;SDS011;9212;50.894;16.714;2023-09-18T14:08:48;9.13;;;5.50;;
18174;SDS011;9212;50.894;16.714;2023-09-18T14:11:15;9.60;;;4.88;;
18174;SDS011;9212;50.894;16.714;2023-09-18T14:13:43;7.05;;;4.88;;
18174;SDS011;9212;50.894;16.714;2023-09-18T14:16:10;10.60;;;4.75;;
18174;SDS011;9212;50.894;16.714;2023-09-18T14:18:41;8.35;;;4.97;;
18174;SDS011;9212;50.894;16.714;2023-09-18T14:21:08;8.98;;;5.35;;
18174;SDS011;9212;50.894;16.714;2023-09-18T14:23:35;8.23;;;5.15;;
18174;SDS011;9212;50.894;16.714;2023-09-18T14:26:03;7.45;;;5.40;;
18174;SDS011;9212;50.894;16.714;2023-09-18T14:28:30;6.88;;;5.15;;
18174;SDS011;9212;50.894;16.714;2023-09-18T14:30:59;7.35;;;5.05;;
18174;SDS011;9212;50.894;16.714;2023-09-18T14:33:26;8.32;;;4.95;;
18174;SDS011;9212;50.894;16.714;2023-09-18T14:35:55;8.75;;;4.95;;
18174;SDS011;9212;50.894;16.714;2023-09-18T14:38:22;6.43;;;4.78;;
18174;SDS011;9212;50.894;16.714;2023-09-18T14:40:49;5.60;;;4.72;;
18174;SDS011;9212;50.894;16.714;2023-09-18T14:43:17;10.38;;;5.10;;
18174;SDS011;9212;50.894;16.714;2023-09-18T14:45:44;7.22;;;5.07;;
18174;SDS011;9212;50.894;16.714;2023-09-18T14:48:11;9.45;;;5.03;;
18174;SDS011;9212;50.894;16.714;2023-09-18T14:50:39;7.03;;;4.90;;